sensor_id;sensor_type;location;lat;lon;timestamp;P1;durP1;ratioP1;P2;durP2;ratioP2
81725;SDS011;71135;16.738;-14.648;2024-03-23T00:55:12;10.73;;;2.70;;
81725;SDS011;71135;16.738;-14.648;2024-03-23T00:57:39;16.83;;;2.38;;
81725;SDS011;71135;16.738;-14.648;2024-03-23T01:00:06;14.40;;;2.60;;
81725;SDS011;71135;16.738;-14.648;2024-03-23T01:02:33;13.80;;;2.33;;
81725;SDS011;71135;16.738;-14.648;2024-03-23T01:04:59;13.13;;;2.25;;
81725;SDS011;71135;16.738;-14.648;2024-03-23T01:07:26;11.40;;;2.10;;
81725;SDS011;71135;16.738;-14.648;2024-03-23T01:09:52;12.02;;;1.90;;
81725;SDS011;71135;16.738;-14.648;2024-03-23T01:12:21;15.82;;;2.42;;
81725;SDS011;71135;16.738;-14.648;2024-03-23T01:14:48;10.20;;;2.13;;
81725;SDS011;71135;16.738;-14.648;2024-03-23T01:17:14;13.20;;;2.28;;
81725;SDS011;71135;16.738;-14.648;2024-03-23T01:19:41;13.88;;;2.42;;
81725;SDS011;71135;16.738;-14.648;2024-03-23T01:22:07;13.93;;;2.33;;
81725;SDS011;71135;16.738;-14.648;2024-03-23T01:24:35;13.57;;;2.05;;
81725;SDS011;71135;16.738;-14.648;2024-03-23T01:27:02;11.18;;;1.90;;
81725;SDS011;71135;16.738;-14.648;2024-03-23T01:29:31;10.52;;;2.13;;
81725;SDS011;71135;16.738;-14.648;2024-03-23T01:31:58;10.65;;;1.50;;
81725;SDS011;71135;16.738;-14.648;2024-03-23T01:34:24;11.40;;;1.85;;
81725;SDS011;71135;16.738;-14.648;2024-03-23T01:36:51;14.75;;;2.00;;
81725;SDS011;71135;16.738;-14.648;2024-03-23T01:39:17;9.93;;;2.17;;
81725;SDS011;71135;16.738;-14.648;2024-03-23T01:41:44;16.52;;;2.75;;
81725;SDS011;71135;16.738;-14.648;2024-03-23T01:44:10;11.13;;;2.17;;
81725;SDS011;71135;16.738;-14.648;2024-03-23T01:46:39;12.30;;;2.00;;
81725;SDS011;71135;16.738;-14.648;2024-03-23T01:49:06;13.85;;;1.70;;
81725;SDS011;71135;16.738;-14.648;2024-03-23T01:51:33;10.02;;;1.80;;
81725;SDS011;71135;16.738;-14.648;2024-03-23T01:54:00;14.32;;;3.08;;
81725;SDS011;71135;16.738;-14.648;2024-03-23T01:56:28;15.15;;;2.00;;
81725;SDS011;71135;16.738;-14.648;2024-03-23T01:58:55;13.70;;;2.15;;
81725;SDS011;71135;16.738;-14.648;2024-03-23T02:04:07;8.95;;;1.88;;
81725;SDS011;71135;16.738;-14.648;2024-03-23T02:13:09;6.57;;;1.70;;
81725;SDS011;71135;16.738;-14.648;2024-03-23T02:15:36;11.63;;;1.83;;
81725;SDS011;71135;16.738;-14.648;2024-03-23T02:18:06;10.23;;;1.60;;
81725;SDS011;71135;16.738;-14.648;2024-03-23T02:20:33;10.38;;;1.40;;
81725;SDS011;71135;16.738;-14.648;2024-03-23T02:23:02;11.48;;;1.48;;
81725;SDS011;71135;16.738;-14.648;2024-03-23T02:25:29;12.50;;;1.88;;
81725;SDS011;71135;16.738;-14.648;2024-03-23T02:27:56;15.73;;;1.02;;
81725;SDS011;71135;16.738;-14.648;2024-03-23T02:30:22;9.40;;;1.10;;
81725;SDS011;71135;16.738;-14.648;2024-03-23T02:32:49;11.75;;;1.63;;
81725;SDS011;71135;16.738;-14.648;2024-03-23T02:35:15;8.13;;;1.40;;
81725;SDS011;71135;16.738;-14.648;2024-03-23T02:37:42;11.73;;;1.58;;
81725;SDS011;71135;16.738;-14.648;2024-03-23T02:40:11;12.80;;;1.20;;
81725;SDS011;71135;16.738;-14.648;2024-03-23T02:42:37;6.53;;;1.23;;
81725;SDS011;71135;16.738;-14.648;2024-03-23T02:45:04;7.93;;;1.05;;
81725;SDS011;71135;16.738;-14.648;2024-03-23T02:47:31;6.68;;;0.80;;
81725;SDS011;71135;16.738;-14.648;2024-03-23T02:52:49;10.10;;;1.90;;
81725;SDS011;71135;16.738;-14.648;2024-03-23T02:57:56;8.07;;;1.33;;
81725;SDS011;71135;16.738;-14.648;2024-03-23T03:00:22;6.65;;;0.82;;
81725;SDS011;71135;16.738;-14.648;2024-03-23T03:02:49;9.55;;;0.98;;
81725;SDS011;71135;16.738;-14.648;2024-03-23T03:05:15;13.63;;;1.45;;
81725;SDS011;71135;16.738;-14.648;2024-03-23T03:07:42;10.95;;;1.17;;
81725;SDS011;71135;16.738;-14.648;2024-03-23T03:10:09;6.70;;;1.10;;
81725;SDS011;71135;16.738;-14.648;2024-03-23T03:12:38;7.00;;;0.98;;
81725;SDS011;71135;16.738;-14.648;2024-03-23T03:15:06;9.02;;;1.02;;
81725;SDS011;71135;16.738;-14.648;2024-03-23T03:17:34;15.73;;;1.10;;
81725;SDS011;71135;16.738;-14.648;2024-03-23T03:20:00;13.05;;;1.80;;
81725;SDS011;71135;16.738;-14.648;2024-03-23T03:22:27;9.70;;;1.27;;
81725;SDS011;71135;16.738;-14.648;2024-03-23T03:24:53;9.60;;;1.15;;
81725;SDS011;71135;16.738;-14.648;2024-03-23T03:27:20;7.32;;;0.80;;
81725;SDS011;71135;16.738;-14.648;2024-03-23T03:29:49;6.97;;;1.45;;
81725;SDS011;71135;16.738;-14.648;2024-03-23T03:32:15;9.93;;;1.17;;
81725;SDS011;71135;16.738;-14.648;2024-03-23T03:34:42;9.93;;;1.42;;
81725;SDS011;71135;16.738;-14.648;2024-03-23T03:37:08;6.13;;;1.02;;
81725;SDS011;71135;16.738;-14.648;2024-03-23T03:39:35;4.68;;;0.77;;
81725;SDS011;71135;16.738;-14.648;2024-03-23T03:42:01;9.68;;;0.90;;
81725;SDS011;71135;16.738;-14.648;2024-03-23T03:44:28;11.55;;;1.23;;
81725;SDS011;71135;16.738;-14.648;2024-03-23T03:46:57;6.80;;;1.05;;
81725;SDS011;71135;16.738;-14.648;2024-03-23T03:49:24;10.75;;;1.13;;
81725;SDS011;71135;16.738;-14.648;2024-03-23T03:51:50;7.13;;;0.90;;
81725;SDS011;71135;16.738;-14.648;2024-03-23T03:54:17;8.85;;;0.82;;
81725;SDS011;71135;16.738;-14.648;2024-03-23T03:56:43;5.85;;;1.40;;
81725;SDS011;71135;16.738;-14.648;2024-03-23T03:59:10;6.57;;;1.00;;
81725;SDS011;71135;16.738;-14.648;2024-03-23T04:01:36;6.03;;;0.90;;
81725;SDS011;71135;16.738;-14.648;2024-03-23T04:04:05;5.72;;;0.80;;
81725;SDS011;71135;16.738;-14.648;2024-03-23T04:06:32;12.13;;;1.15;;
81725;SDS011;71135;16.738;-14.648;2024-03-23T04:08:59;7.35;;;0.77;;
81725;SDS011;71135;16.738;-14.648;2024-03-23T04:11:25;7.45;;;0.57;;
81725;SDS011;71135;16.738;-14.648;2024-03-23T04:13:52;9.50;;;1.15;;
81725;SDS011;71135;16.738;-14.648;2024-03-23T04:16:24;7.50;;;0.68;;
81725;SDS011;71135;16.738;-14.648;2024-03-23T04:21:21;3.72;;;0.68;;
81725;SDS011;71135;16.738;-14.648;2024-03-23T04:23:48;7.63;;;0.82;;
81725;SDS011;71135;16.738;-14.648;2024-03-23T04:26:15;8.65;;;1.02;;
81725;SDS011;71135;16.738;-14.648;2024-03-23T04:28:41;7.20;;;0.57;;
81725;SDS011;71135;16.738;-14.648;2024-03-23T04:31:08;8.15;;;0.88;;
81725;SDS011;71135;16.738;-14.648;2024-03-23T04:33:35;10.55;;;1.42;;
81725;SDS011;71135;16.738;-14.648;2024-03-23T04:36:01;7.85;;;1.42;;
81725;SDS011;71135;16.738;-14.648;2024-03-23T04:38:31;5.22;;;0.70;;
81725;SDS011;71135;16.738;-14.648;2024-03-23T04:40:57;4.63;;;0.80;;
81725;SDS011;71135;16.738;-14.648;2024-03-23T04:43:25;10.23;;;1.33;;
81725;SDS011;71135;16.738;-14.648;2024-03-23T04:45:51;8.93;;;0.60;;
81725;SDS011;71135;16.738;-14.648;2024-03-23T04:48:19;7.40;;;0.85;;
81725;SDS011;71135;16.738;-14.648;2024-03-23T04:50:46;6.90;;;0.63;;
81725;SDS011;71135;16.738;-14.648;2024-03-23T04:53:13;6.88;;;0.70;;
81725;SDS011;71135;16.738;-14.648;2024-03-23T04:55:42;8.40;;;1.35;;
81725;SDS011;71135;16.738;-14.648;2024-03-23T04:58:09;4.15;;;0.80;;
81725;SDS011;71135;16.738;-14.648;2024-03-23T05:00:35;7.18;;;1.00;;
81725;SDS011;71135;16.738;-14.648;2024-03-23T05:03:02;11.20;;;0.80;;
81725;SDS011;71135;16.738;-14.648;2024-03-23T05:05:29;9.77;;;1.13;;
81725;SDS011;71135;16.738;-14.648;2024-03-23T05:07:55;9.20;;;1.83;;
81725;SDS011;71135;16.738;-14.648;2024-03-23T05:10:22;8.25;;;0.93;;
81725;SDS011;71135;16.738;-14.648;2024-03-23T05:12:51;13.20;;;1.48;;
81725;SDS011;71135;16.738;-14.648;2024-03-23T05:15:17;6.90;;;0.90;;
81725;SDS011;71135;16.738;-14.648;2024-03-23T05:17:44;6.18;;;0.85;;
81725;SDS011;71135;16.738;-14.648;2024-03-23T05:20:10;6.18;;;0.65;;
81725;SDS011;71135;16.738;-14.648;2024-03-23T05:22:37;6.57;;;1.10;;
81725;SDS011;71135;16.738;-14.648;2024-03-23T05:25:04;4.95;;;0.90;;
81725;SDS011;71135;16.738;-14.648;2024-03-23T05:27:31;6.22;;;1.17;;
81725;SDS011;71135;16.738;-14.648;2024-03-23T05:30:01;6.97;;;0.93;;
81725;SDS011;71135;16.738;-14.648;2024-03-23T05:32:27;14.25;;;1.60;;
81725;SDS011;71135;16.738;-14.648;2024-03-23T05:34:54;9.18;;;1.35;;
81725;SDS011;71135;16.738;-14.648;2024-03-23T05:37:21;8.57;;;0.90;;
81725;SDS011;71135;16.738;-14.648;2024-03-23T05:39:48;8.20;;;0.82;;
81725;SDS011;71135;16.738;-14.648;2024-03-23T05:42:15;6.50;;;0.75;;
81725;SDS011;71135;16.738;-14.648;2024-03-23T05:44:42;10.43;;;0.98;;
81725;SDS011;71135;16.738;-14.648;2024-03-23T05:47:13;11.20;;;1.48;;
81725;SDS011;71135;16.738;-14.648;2024-03-23T05:49:40;6.78;;;1.38;;
81725;SDS011;71135;16.738;-14.648;2024-03-23T05:52:07;6.80;;;0.90;;
81725;SDS011;71135;16.738;-14.648;2024-03-23T05:54:34;7.35;;;1.27;;
81725;SDS011;71135;16.738;-14.648;2024-03-23T05:57:00;8.52;;;1.13;;
81725;SDS011;71135;16.738;-14.648;2024-03-23T05:59:27;6.32;;;0.93;;
81725;SDS011;71135;16.738;-14.648;2024-03-23T06:01:53;7.00;;;1.10;;
81725;SDS011;71135;16.738;-14.648;2024-03-23T06:04:23;8.10;;;1.42;;
81725;SDS011;71135;16.738;-14.648;2024-03-23T06:06:50;5.90;;;1.60;;
81725;SDS011;71135;16.738;-14.648;2024-03-23T06:09:17;6.03;;;0.85;;
81725;SDS011;71135;16.738;-14.648;2024-03-23T06:11:43;9.50;;;1.00;;
81725;SDS011;71135;16.738;-14.648;2024-03-23T06:14:10;9.35;;;1.23;;
81725;SDS011;71135;16.738;-14.648;2024-03-23T06:16:36;3.55;;;0.60;;
81725;SDS011;71135;16.738;-14.648;2024-03-23T06:19:03;5.03;;;0.80;;
81725;SDS011;71135;16.738;-14.648;2024-03-23T06:21:32;4.53;;;1.00;;
81725;SDS011;71135;16.738;-14.648;2024-03-23T06:23:59;7.05;;;1.05;;
81725;SDS011;71135;16.738;-14.648;2024-03-23T06:26:25;11.15;;;1.48;;
81725;SDS011;71135;16.738;-14.648;2024-03-23T06:28:52;8.90;;;1.10;;
81725;SDS011;71135;16.738;-14.648;2024-03-23T06:31:18;12.23;;;1.52;;
81725;SDS011;71135;16.738;-14.648;2024-03-23T06:33:45;7.63;;;0.95;;
81725;SDS011;71135;16.738;-14.648;2024-03-23T06:36:12;13.73;;;1.40;;
81725;SDS011;71135;16.738;-14.648;2024-03-23T06:38:41;6.85;;;1.65;;
81725;SDS011;71135;16.738;-14.648;2024-03-23T06:41:08;7.60;;;1.75;;
81725;SDS011;71135;16.738;-14.648;2024-03-23T06:43:34;5.30;;;1.52;;
81725;SDS011;71135;16.738;-14.648;2024-03-23T06:46:01;9.38;;;1.98;;
81725;SDS011;71135;16.738;-14.648;2024-03-23T06:48:29;9.55;;;1.73;;
81725;SDS011;71135;16.738;-14.648;2024-03-23T06:50:56;10.82;;;1.50;;
81725;SDS011;71135;16.738;-14.648;2024-03-23T06:53:23;7.82;;;1.40;;
81725;SDS011;71135;16.738;-14.648;2024-03-23T06:55:53;6.65;;;1.50;;
81725;SDS011;71135;16.738;-14.648;2024-03-23T06:58:20;6.25;;;1.30;;
81725;SDS011;71135;16.738;-14.648;2024-03-23T07:00:46;7.90;;;1.65;;
81725;SDS011;71135;16.738;-14.648;2024-03-23T07:03:13;7.47;;;1.63;;
81725;SDS011;71135;16.738;-14.648;2024-03-23T07:05:40;8.38;;;1.50;;
81725;SDS011;71135;16.738;-14.648;2024-03-23T07:08:07;5.22;;;1.48;;
81725;SDS011;71135;16.738;-14.648;2024-03-23T07:10:33;7.55;;;1.60;;
81725;SDS011;71135;16.738;-14.648;2024-03-23T07:13:03;8.63;;;1.35;;
81725;SDS011;71135;16.738;-14.648;2024-03-23T07:15:30;7.25;;;1.05;;
81725;SDS011;71135;16.738;-14.648;2024-03-23T07:17:56;7.47;;;1.52;;
81725;SDS011;71135;16.738;-14.648;2024-03-23T07:20:23;4.55;;;0.93;;
81725;SDS011;71135;16.738;-14.648;2024-03-23T07:22:49;7.18;;;1.60;;
81725;SDS011;71135;16.738;-14.648;2024-03-23T07:25:16;6.78;;;1.30;;
81725;SDS011;71135;16.738;-14.648;2024-03-23T07:27:42;8.73;;;1.20;;
81725;SDS011;71135;16.738;-14.648;2024-03-23T07:30:12;9.90;;;2.53;;
81725;SDS011;71135;16.738;-14.648;2024-03-23T07:32:38;6.35;;;1.60;;
81725;SDS011;71135;16.738;-14.648;2024-03-23T07:35:05;10.27;;;1.60;;
81725;SDS011;71135;16.738;-14.648;2024-03-23T07:39:58;4.00;;;0.85;;
81725;SDS011;71135;16.738;-14.648;2024-03-23T07:42:25;1.98;;;0.40;;
81725;SDS011;71135;16.738;-14.648;2024-03-23T07:44:51;2.58;;;0.28;;
81725;SDS011;71135;16.738;-14.648;2024-03-23T07:47:20;2.65;;;0.40;;
81725;SDS011;71135;16.738;-14.648;2024-03-23T07:49:47;2.90;;;0.38;;
81725;SDS011;71135;16.738;-14.648;2024-03-23T07:52:14;1.02;;;0.43;;
81725;SDS011;71135;16.738;-14.648;2024-03-23T07:54:40;5.00;;;0.30;;
81725;SDS011;71135;16.738;-14.648;2024-03-23T07:57:07;4.03;;;0.60;;
81725;SDS011;71135;16.738;-14.648;2024-03-23T07:59:34;5.10;;;0.50;;
81725;SDS011;71135;16.738;-14.648;2024-03-23T08:02:00;4.38;;;0.93;;
81725;SDS011;71135;16.738;-14.648;2024-03-23T08:04:29;7.75;;;1.42;;
81725;SDS011;71135;16.738;-14.648;2024-03-23T08:06:56;6.22;;;1.10;;
81725;SDS011;71135;16.738;-14.648;2024-03-23T08:09:22;7.75;;;1.17;;
81725;SDS011;71135;16.738;-14.648;2024-03-23T08:11:49;14.23;;;2.38;;
81725;SDS011;71135;16.738;-14.648;2024-03-23T08:14:15;13.65;;;1.63;;
81725;SDS011;71135;16.738;-14.648;2024-03-23T08:16:42;5.05;;;1.05;;
81725;SDS011;71135;16.738;-14.648;2024-03-23T08:19:09;12.43;;;1.42;;
81725;SDS011;71135;16.738;-14.648;2024-03-23T08:21:38;9.07;;;1.45;;
81725;SDS011;71135;16.738;-14.648;2024-03-23T08:24:05;5.18;;;0.95;;
81725;SDS011;71135;16.738;-14.648;2024-03-23T08:26:32;4.05;;;0.93;;
81725;SDS011;71135;16.738;-14.648;2024-03-23T08:28:58;7.90;;;1.42;;
81725;SDS011;71135;16.738;-14.648;2024-03-23T08:31:25;5.65;;;1.65;;
81725;SDS011;71135;16.738;-14.648;2024-03-23T08:33:51;2.78;;;0.98;;
81725;SDS011;71135;16.738;-14.648;2024-03-23T08:36:18;7.63;;;1.10;;
81725;SDS011;71135;16.738;-14.648;2024-03-23T08:38:47;8.55;;;1.45;;
81725;SDS011;71135;16.738;-14.648;2024-03-23T08:41:14;7.30;;;1.40;;
81725;SDS011;71135;16.738;-14.648;2024-03-23T08:43:41;15.25;;;1.92;;
81725;SDS011;71135;16.738;-14.648;2024-03-23T08:46:08;8.20;;;2.33;;
81725;SDS011;71135;16.738;-14.648;2024-03-23T08:48:36;10.60;;;2.53;;
81725;SDS011;71135;16.738;-14.648;2024-03-23T08:51:03;7.75;;;1.27;;
81725;SDS011;71135;16.738;-14.648;2024-03-23T08:53:31;4.72;;;1.15;;
81725;SDS011;71135;16.738;-14.648;2024-03-23T08:56:01;7.90;;;1.70;;
81725;SDS011;71135;16.738;-14.648;2024-03-23T08:58:29;11.20;;;1.48;;
81725;SDS011;71135;16.738;-14.648;2024-03-23T09:00:57;7.20;;;1.35;;
81725;SDS011;71135;16.738;-14.648;2024-03-23T09:03:29;5.97;;;1.35;;
81725;SDS011;71135;16.738;-14.648;2024-03-23T09:05:56;6.22;;;0.88;;
81725;SDS011;71135;16.738;-14.648;2024-03-23T09:08:22;4.38;;;1.00;;
81725;SDS011;71135;16.738;-14.648;2024-03-23T09:10:49;3.95;;;0.82;;
81725;SDS011;71135;16.738;-14.648;2024-03-23T09:13:18;7.47;;;0.80;;
81725;SDS011;71135;16.738;-14.648;2024-03-23T09:15:46;6.45;;;0.70;;
81725;SDS011;71135;16.738;-14.648;2024-03-23T09:18:13;4.97;;;1.02;;
81725;SDS011;71135;16.738;-14.648;2024-03-23T09:20:39;8.65;;;1.00;;
81725;SDS011;71135;16.738;-14.648;2024-03-23T09:23:06;9.07;;;1.55;;
81725;SDS011;71135;16.738;-14.648;2024-03-23T09:25:35;8.02;;;0.88;;
81725;SDS011;71135;16.738;-14.648;2024-03-23T09:28:02;6.65;;;0.90;;
81725;SDS011;71135;16.738;-14.648;2024-03-23T09:30:31;3.90;;;0.80;;
81725;SDS011;71135;16.738;-14.648;2024-03-23T09:32:59;4.47;;;0.50;;
81725;SDS011;71135;16.738;-14.648;2024-03-23T09:35:25;3.97;;;0.52;;
81725;SDS011;71135;16.738;-14.648;2024-03-23T09:37:52;3.75;;;0.50;;
81725;SDS011;71135;16.738;-14.648;2024-03-23T09:40:19;7.53;;;0.85;;
81725;SDS011;71135;16.738;-14.648;2024-03-23T09:42:49;8.05;;;1.05;;
81725;SDS011;71135;16.738;-14.648;2024-03-23T09:45:16;7.82;;;1.23;;
81725;SDS011;71135;16.738;-14.648;2024-03-23T09:47:48;5.55;;;0.85;;
81725;SDS011;71135;16.738;-14.648;2024-03-23T09:50:15;4.65;;;1.48;;
81725;SDS011;71135;16.738;-14.648;2024-03-23T09:52:42;7.47;;;0.90;;
81725;SDS011;71135;16.738;-14.648;2024-03-23T09:55:09;8.20;;;1.00;;
81725;SDS011;71135;16.738;-14.648;2024-03-23T09:57:35;7.32;;;1.45;;
81725;SDS011;71135;16.738;-14.648;2024-03-23T10:00:07;6.97;;;1.50;;
81725;SDS011;71135;16.738;-14.648;2024-03-23T10:02:34;7.07;;;1.30;;
81725;SDS011;71135;16.738;-14.648;2024-03-23T10:05:04;9.63;;;1.70;;
81725;SDS011;71135;16.738;-14.648;2024-03-23T10:07:45;7.68;;;1.33;;
81725;SDS011;71135;16.738;-14.648;2024-03-23T10:10:12;8.43;;;1.45;;
81725;SDS011;71135;16.738;-14.648;2024-03-23T10:12:40;12.00;;;1.77;;
81725;SDS011;71135;16.738;-14.648;2024-03-23T10:15:13;4.78;;;1.42;;
81725;SDS011;71135;16.738;-14.648;2024-03-23T10:17:43;9.35;;;1.40;;
81725;SDS011;71135;16.738;-14.648;2024-03-23T10:20:13;4.82;;;0.98;;
81725;SDS011;71135;16.738;-14.648;2024-03-23T10:22:45;6.72;;;1.08;;
81725;SDS011;71135;16.738;-14.648;2024-03-23T10:25:12;7.85;;;1.20;;
81725;SDS011;71135;16.738;-14.648;2024-03-23T10:27:39;8.98;;;1.40;;
81725;SDS011;71135;16.738;-14.648;2024-03-23T10:30:09;4.53;;;1.30;;
81725;SDS011;71135;16.738;-14.648;2024-03-23T10:32:36;6.65;;;1.25;;
81725;SDS011;71135;16.738;-14.648;2024-03-23T10:42:37;7.70;;;1.00;;
81725;SDS011;71135;16.738;-14.648;2024-03-23T10:45:04;5.68;;;1.35;;
81725;SDS011;71135;16.738;-14.648;2024-03-23T10:47:31;5.63;;;0.95;;
81725;SDS011;71135;16.738;-14.648;2024-03-23T10:50:00;4.80;;;1.02;;
81725;SDS011;71135;16.738;-14.648;2024-03-23T10:52:29;6.55;;;0.95;;
81725;SDS011;71135;16.738;-14.648;2024-03-23T10:54:55;7.60;;;1.90;;
81725;SDS011;71135;16.738;-14.648;2024-03-23T10:57:26;9.35;;;1.90;;
81725;SDS011;71135;16.738;-14.648;2024-03-23T10:59:57;8.52;;;1.38;;
81725;SDS011;71135;16.738;-14.648;2024-03-23T11:02:24;5.55;;;1.50;;
81725;SDS011;71135;16.738;-14.648;2024-03-23T11:04:52;6.28;;;1.05;;
81725;SDS011;71135;16.738;-14.648;2024-03-23T11:07:31;6.97;;;1.00;;
81725;SDS011;71135;16.738;-14.648;2024-03-23T11:09:59;4.72;;;1.52;;
81725;SDS011;71135;16.738;-14.648;2024-03-23T11:12:29;11.43;;;1.38;;
81725;SDS011;71135;16.738;-14.648;2024-03-23T11:14:58;4.57;;;0.82;;
81725;SDS011;71135;16.738;-14.648;2024-03-23T11:17:27;11.43;;;1.40;;
81725;SDS011;71135;16.738;-14.648;2024-03-23T11:19:53;5.47;;;0.98;;
81725;SDS011;71135;16.738;-14.648;2024-03-23T11:25:13;5.13;;;1.20;;
81725;SDS011;71135;16.738;-14.648;2024-03-23T11:27:44;12.27;;;2.53;;
81725;SDS011;71135;16.738;-14.648;2024-03-23T11:30:15;9.50;;;1.52;;
81725;SDS011;71135;16.738;-14.648;2024-03-23T11:32:43;11.27;;;1.67;;
81725;SDS011;71135;16.738;-14.648;2024-03-23T11:35:10;6.00;;;1.13;;
81725;SDS011;71135;16.738;-14.648;2024-03-23T11:38:03;2.67;;;0.80;;
81725;SDS011;71135;16.738;-14.648;2024-03-23T11:40:34;8.07;;;0.85;;
81725;SDS011;71135;16.738;-14.648;2024-03-23T11:43:05;3.42;;;0.30;;
81725;SDS011;71135;16.738;-14.648;2024-03-23T11:45:36;5.80;;;1.42;;
81725;SDS011;71135;16.738;-14.648;2024-03-23T11:48:04;5.25;;;0.98;;
81725;SDS011;71135;16.738;-14.648;2024-03-23T11:50:33;8.35;;;0.98;;
81725;SDS011;71135;16.738;-14.648;2024-03-23T11:53:11;7.03;;;1.35;;
81725;SDS011;71135;16.738;-14.648;2024-03-23T11:55:46;11.88;;;1.25;;
81725;SDS011;71135;16.738;-14.648;2024-03-23T11:58:14;6.47;;;1.17;;
81725;SDS011;71135;16.738;-14.648;2024-03-23T12:00:41;6.15;;;1.10;;
81725;SDS011;71135;16.738;-14.648;2024-03-23T12:03:08;3.65;;;0.95;;
81725;SDS011;71135;16.738;-14.648;2024-03-23T12:10:48;7.47;;;1.80;;
81725;SDS011;71135;16.738;-14.648;2024-03-23T12:13:19;4.60;;;0.55;;
81725;SDS011;71135;16.738;-14.648;2024-03-23T12:15:47;6.53;;;0.73;;
81725;SDS011;71135;16.738;-14.648;2024-03-23T12:18:15;6.03;;;1.33;;
81725;SDS011;71135;16.738;-14.648;2024-03-23T12:20:41;4.63;;;1.00;;
81725;SDS011;71135;16.738;-14.648;2024-03-23T12:23:08;6.05;;;0.88;;
81725;SDS011;71135;16.738;-14.648;2024-03-23T12:25:40;7.30;;;0.88;;
81725;SDS011;71135;16.738;-14.648;2024-03-23T12:28:07;5.30;;;0.95;;
81725;SDS011;71135;16.738;-14.648;2024-03-23T12:30:34;5.97;;;1.15;;
81725;SDS011;71135;16.738;-14.648;2024-03-23T12:33:01;7.57;;;1.05;;
81725;SDS011;71135;16.738;-14.648;2024-03-23T12:35:29;6.47;;;1.10;;
81725;SDS011;71135;16.738;-14.648;2024-03-23T12:37:55;7.90;;;0.80;;
81725;SDS011;71135;16.738;-14.648;2024-03-23T12:40:22;4.07;;;1.23;;
81725;SDS011;71135;16.738;-14.648;2024-03-23T12:42:51;9.35;;;1.20;;
81725;SDS011;71135;16.738;-14.648;2024-03-23T12:45:18;5.43;;;0.75;;
81725;SDS011;71135;16.738;-14.648;2024-03-23T12:47:44;7.80;;;1.05;;
81725;SDS011;71135;16.738;-14.648;2024-03-23T12:53:23;4.38;;;0.70;;
81725;SDS011;71135;16.738;-14.648;2024-03-23T12:55:49;4.57;;;0.70;;
81725;SDS011;71135;16.738;-14.648;2024-03-23T12:58:19;6.93;;;0.80;;
81725;SDS011;71135;16.738;-14.648;2024-03-23T13:00:45;9.70;;;1.42;;
81725;SDS011;71135;16.738;-14.648;2024-03-23T13:03:13;11.10;;;1.15;;
81725;SDS011;71135;16.738;-14.648;2024-03-23T13:05:40;11.85;;;1.13;;
81725;SDS011;71135;16.738;-14.648;2024-03-23T13:08:06;6.13;;;1.20;;
81725;SDS011;71135;16.738;-14.648;2024-03-23T13:10:33;7.70;;;1.25;;
81725;SDS011;71135;16.738;-14.648;2024-03-23T13:12:59;6.93;;;1.17;;
81725;SDS011;71135;16.738;-14.648;2024-03-23T13:15:29;8.48;;;1.30;;
81725;SDS011;71135;16.738;-14.648;2024-03-23T13:17:55;5.93;;;0.80;;
81725;SDS011;71135;16.738;-14.648;2024-03-23T13:20:22;6.10;;;0.98;;
81725;SDS011;71135;16.738;-14.648;2024-03-23T13:22:48;6.70;;;1.17;;
81725;SDS011;71135;16.738;-14.648;2024-03-23T13:25:15;4.78;;;0.68;;
81725;SDS011;71135;16.738;-14.648;2024-03-23T13:27:41;6.50;;;1.15;;
81725;SDS011;71135;16.738;-14.648;2024-03-23T13:30:08;4.57;;;1.05;;
81725;SDS011;71135;16.738;-14.648;2024-03-23T13:32:38;16.25;;;1.30;;
81725;SDS011;71135;16.738;-14.648;2024-03-23T13:35:05;7.30;;;1.38;;
81725;SDS011;71135;16.738;-14.648;2024-03-23T13:37:32;6.22;;;0.75;;
81725;SDS011;71135;16.738;-14.648;2024-03-23T13:39:59;4.03;;;0.60;;
81725;SDS011;71135;16.738;-14.648;2024-03-23T13:42:28;3.42;;;0.52;;
81725;SDS011;71135;16.738;-14.648;2024-03-23T13:44:55;6.57;;;0.70;;
81725;SDS011;71135;16.738;-14.648;2024-03-23T13:47:21;3.55;;;0.75;;
81725;SDS011;71135;16.738;-14.648;2024-03-23T13:49:51;5.53;;;0.52;;
81725;SDS011;71135;16.738;-14.648;2024-03-23T13:52:17;3.60;;;0.55;;
81725;SDS011;71135;16.738;-14.648;2024-03-23T13:54:44;5.60;;;0.30;;
81725;SDS011;71135;16.738;-14.648;2024-03-23T13:57:10;4.60;;;0.43;;
81725;SDS011;71135;16.738;-14.648;2024-03-23T13:59:37;4.53;;;0.70;;
81725;SDS011;71135;16.738;-14.648;2024-03-23T14:02:04;6.35;;;1.13;;
81725;SDS011;71135;16.738;-14.648;2024-03-23T14:04:30;8.50;;;1.23;;
81725;SDS011;71135;16.738;-14.648;2024-03-23T14:06:59;7.32;;;0.80;;
81725;SDS011;71135;16.738;-14.648;2024-03-23T14:09:26;4.80;;;0.85;;
81725;SDS011;71135;16.738;-14.648;2024-03-23T14:11:52;6.32;;;0.90;;
81725;SDS011;71135;16.738;-14.648;2024-03-23T14:14:19;6.47;;;0.88;;
81725;SDS011;71135;16.738;-14.648;2024-03-23T14:16:45;3.58;;;1.00;;
81725;SDS011;71135;16.738;-14.648;2024-03-23T14:19:12;6.65;;;1.48;;
81725;SDS011;71135;16.738;-14.648;2024-03-23T14:21:38;3.22;;;0.68;;
81725;SDS011;71135;16.738;-14.648;2024-03-23T14:24:08;4.30;;;0.57;;
81725;SDS011;71135;16.738;-14.648;2024-03-23T14:26:35;8.48;;;1.02;;
81725;SDS011;71135;16.738;-14.648;2024-03-23T14:29:01;7.07;;;1.00;;
81725;SDS011;71135;16.738;-14.648;2024-03-23T14:31:28;8.48;;;1.27;;
81725;SDS011;71135;16.738;-14.648;2024-03-23T14:33:55;8.85;;;1.48;;
81725;SDS011;71135;16.738;-14.648;2024-03-23T14:36:21;5.90;;;0.85;;
81725;SDS011;71135;16.738;-14.648;2024-03-23T14:38:48;3.33;;;0.80;;
81725;SDS011;71135;16.738;-14.648;2024-03-23T14:41:17;3.42;;;0.40;;
81725;SDS011;71135;16.738;-14.648;2024-03-23T14:43:46;2.10;;;0.30;;
81725;SDS011;71135;16.738;-14.648;2024-03-23T14:46:13;2.30;;;0.40;;
81725;SDS011;71135;16.738;-14.648;2024-03-23T14:48:41;0.68;;;0.20;;
81725;SDS011;71135;16.738;-14.648;2024-03-23T14:51:08;1.38;;;0.30;;
81725;SDS011;71135;16.738;-14.648;2024-03-23T14:53:35;3.88;;;0.25;;
81725;SDS011;71135;16.738;-14.648;2024-03-23T14:56:03;2.72;;;0.30;;
81725;SDS011;71135;16.738;-14.648;2024-03-23T14:58:33;4.03;;;0.43;;
81725;SDS011;71135;16.738;-14.648;2024-03-23T15:01:00;2.63;;;0.50;;
81725;SDS011;71135;16.738;-14.648;2024-03-23T15:05:54;4.28;;;0.98;;
81725;SDS011;71135;16.738;-14.648;2024-03-23T15:08:21;4.72;;;0.73;;
81725;SDS011;71135;16.738;-14.648;2024-03-23T15:10:48;7.60;;;1.05;;
81725;SDS011;71135;16.738;-14.648;2024-03-23T15:13:15;6.90;;;0.93;;
81725;SDS011;71135;16.738;-14.648;2024-03-23T15:15:44;4.20;;;1.00;;
81725;SDS011;71135;16.738;-14.648;2024-03-23T15:18:11;4.82;;;1.48;;
81725;SDS011;71135;16.738;-14.648;2024-03-23T15:20:38;4.32;;;0.50;;
81725;SDS011;71135;16.738;-14.648;2024-03-23T15:23:05;1.88;;;0.30;;
81725;SDS011;71135;16.738;-14.648;2024-03-23T15:25:32;7.60;;;0.50;;
81725;SDS011;71135;16.738;-14.648;2024-03-23T15:27:58;4.78;;;0.98;;
81725;SDS011;71135;16.738;-14.648;2024-03-23T15:30:25;1.85;;;0.70;;
81725;SDS011;71135;16.738;-14.648;2024-03-23T15:32:54;4.47;;;1.20;;
81725;SDS011;71135;16.738;-14.648;2024-03-23T15:35:20;4.35;;;1.00;;
81725;SDS011;71135;16.738;-14.648;2024-03-23T15:37:47;4.53;;;1.58;;
81725;SDS011;71135;16.738;-14.648;2024-03-23T15:40:14;8.75;;;1.65;;
81725;SDS011;71135;16.738;-14.648;2024-03-23T15:42:40;5.13;;;1.45;;
81725;SDS011;71135;16.738;-14.648;2024-03-23T15:45:07;7.35;;;0.90;;
81725;SDS011;71135;16.738;-14.648;2024-03-23T15:47:35;6.93;;;1.85;;
81725;SDS011;71135;16.738;-14.648;2024-03-23T15:50:05;6.85;;;1.58;;
81725;SDS011;71135;16.738;-14.648;2024-03-23T15:52:35;12.77;;;1.45;;
81725;SDS011;71135;16.738;-14.648;2024-03-23T15:55:02;6.55;;;0.95;;